TDCF/DCF METAR and TAF weather

Enter ICAO airport designator
Station Type Date Time Source
TDCF METAR 2024/04/17 19:00 UTC NOAA

TDCF 171900Z 34006KT 9999 SCT018 31/24 Q1010


Station Type Date Time Source
TDCF Decoded METAR 2024/04/17 19:00 UTC NOAA

Canefield Airport, Dominica (TDCF) 15-32N 061-24W 5M
Apr 17, 2024 - 03:00 PM EDT / 2024.04.17 1900 UTC
Wind: from the NNW (340 degrees) at 7 MPH (6 KT):0
Visibility: greater than 7 mile(s):0
Sky conditions: partly cloudy
Temperature: 87 F (31 C)
Heat index: 95.7 F (35.4 C):1
Dew Point: 75 F (24 C)
Relative Humidity: 66%
Pressure (altimeter): 29.83 in. Hg (1010 hPa)
ob: TDCF 171900Z 34006KT 9999 SCT018 31/24 Q1010
cycle: 19

Station Type Date Time Source
TDCF TAF 2012/05/01 18:15 UTC NOAA